createdAt,value
2019-02-10T00:00:31.668Z,75.44
2019-02-10T00:05:26.255Z,75.16
2019-02-10T00:10:20.817Z,75.53
2019-02-10T00:15:15.416Z,74.88
2019-02-10T00:20:10.137Z,74.47
2019-02-10T00:25:06.542Z,74.08
2019-02-10T00:30:01.120Z,74.03
2019-02-10T00:34:55.702Z,72.75
2019-02-10T00:39:50.283Z,71.58
2019-02-10T00:44:44.871Z,71.34
2019-02-10T00:49:39.462Z,71.82
2019-02-10T00:54:34.055Z,71.98
2019-02-10T00:59:28.711Z,71.69
2019-02-10T01:04:23.268Z,71.15
2019-02-10T01:09:17.853Z,69.85
2019-02-10T01:14:12.461Z,68.46
2019-02-10T01:19:09.062Z,67.79
2019-02-10T01:24:03.700Z,66.80
2019-02-10T01:28:58.353Z,66.26
2019-02-10T01:33:52.950Z,65.99
2019-02-10T01:38:47.539Z,65.89
2019-02-10T01:43:42.110Z,65.60
2019-02-10T01:48:36.702Z,66.36
2019-02-10T01:53:31.363Z,65.60
2019-02-10T01:58:25.967Z,66.64
2019-02-10T02:03:20.535Z,67.00
2019-02-10T02:08:15.117Z,67.04
2019-02-10T02:13:09.706Z,66.74
2019-02-10T02:18:04.343Z,66.24
2019-02-10T02:22:58.939Z,65.91
2019-02-10T02:27:53.522Z,65.71
2019-02-10T02:32:48.075Z,65.58
2019-02-10T02:37:42.656Z,65.50
2019-02-10T02:42:37.237Z,66.09
2019-02-10T02:47:31.820Z,65.55
2019-02-10T02:52:26.407Z,64.73
2019-02-10T02:57:20.990Z,64.70
2019-02-10T03:02:15.645Z,65.01
2019-02-10T03:07:17.790Z,65.01
2019-02-10T03:12:06.538Z,65.08
2019-02-10T03:17:01.148Z,64.28
2019-02-10T03:21:55.728Z,64.40
2019-02-10T03:26:50.319Z,64.39
2019-02-10T03:31:44.938Z,65.01
2019-02-10T03:36:39.499Z,65.81
2019-02-10T03:41:34.613Z,66.59
2019-02-10T03:46:29.210Z,66.38
2019-02-10T03:51:23.794Z,66.10
2019-02-10T03:56:18.447Z,65.38
2019-02-10T04:01:13.023Z,65.85
2019-02-10T04:06:07.601Z,65.14
2019-02-10T04:11:02.215Z,64.85
2019-02-10T04:15:56.814Z,65.36
2019-02-10T04:20:51.386Z,69.87
2019-02-10T04:25:45.986Z,73.87
2019-02-10T04:30:40.580Z,75.77
2019-02-10T04:35:35.170Z,77.34
2019-02-10T04:40:29.754Z,78.14
2019-02-10T04:45:24.342Z,78.92
2019-02-10T04:50:18.941Z,79.38
2019-02-10T04:55:13.525Z,79.81
2019-02-10T05:00:11.359Z,79.94
2019-02-10T05:05:06.553Z,80.40
2019-02-10T05:10:01.136Z,80.52
2019-02-10T05:14:55.729Z,80.78
2019-02-10T05:19:50.307Z,80.70
2019-02-10T05:24:44.875Z,79.91
2019-02-10T05:29:39.462Z,79.52
2019-02-10T05:34:34.063Z,79.54
2019-02-10T05:39:28.655Z,80.01
2019-02-10T05:44:23.224Z,80.05
2019-02-10T05:49:17.814Z,80.10
2019-02-10T05:54:12.389Z,80.50
2019-02-10T05:59:06.983Z,81.16
2019-02-10T06:04:01.563Z,81.24
2019-02-10T06:08:56.134Z,80.93
2019-02-10T06:13:50.732Z,80.18
2019-02-10T06:18:45.308Z,80.66
2019-02-10T06:23:39.892Z,80.92
2019-02-10T06:28:34.491Z,80.39
2019-02-10T06:33:29.065Z,79.22
2019-02-10T06:38:23.651Z,77.35
2019-02-10T06:43:18.260Z,76.86
2019-02-10T06:48:12.853Z,75.59
2019-02-10T06:53:07.435Z,75.51
2019-02-10T06:58:01.999Z,74.68
2019-02-10T07:03:34.142Z,74.16
2019-02-10T07:08:30.625Z,74.34
2019-02-10T07:13:38.531Z,73.27
2019-02-10T07:19:27.465Z,71.72
2019-02-10T07:24:41.179Z,72.05
2019-02-10T07:29:52.220Z,69.32
2019-02-10T07:35:06.180Z,68.50
2019-02-10T07:40:29.453Z,67.48
2019-02-10T07:45:51.141Z,66.59
2019-02-10T07:51:09.446Z,64.99
2019-02-10T07:56:17.576Z,63.93
2019-02-10T08:01:34.604Z,63.78
2019-02-10T08:07:00.184Z,63.66
2019-02-10T08:12:07.568Z,63.33
2019-02-10T08:17:36.290Z,60.66
2019-02-10T08:22:49.630Z,59.07
2019-02-10T08:27:51.736Z,56.54
2019-02-10T08:33:07.086Z,55.50
2019-02-10T08:38:29.060Z,54.23
2019-02-10T08:43:53.978Z,55.25
2019-02-10T08:49:25.783Z,54.23
2019-02-10T08:54:20.362Z,59.37
2019-02-10T08:59:14.950Z,61.81
2019-02-10T09:04:09.540Z,64.00
2019-02-10T09:09:05.265Z,66.12
2019-02-10T09:13:59.871Z,68.10
2019-02-10T09:18:54.465Z,69.10
2019-02-10T09:23:49.042Z,69.30
2019-02-10T09:28:43.626Z,68.05
2019-02-10T09:33:38.219Z,68.09
2019-02-10T09:38:32.791Z,67.12
2019-02-10T09:43:27.389Z,65.08
2019-02-10T09:48:21.975Z,63.82
2019-02-10T09:53:16.557Z,60.72
2019-02-10T09:58:11.153Z,58.70
2019-02-10T10:03:05.756Z,57.29
2019-02-10T10:08:00.355Z,53.91
2019-02-10T10:12:54.964Z,51.72
2019-02-10T10:17:49.557Z,48.66
2019-02-10T10:22:44.151Z,46.69
2019-02-10T10:27:38.750Z,47.03
2019-02-10T10:32:33.340Z,47.09
2019-02-10T10:37:27.933Z,45.47
2019-02-10T10:42:22.715Z,42.42
2019-02-10T10:47:17.308Z,41.94
2019-02-10T10:52:11.914Z,48.01
2019-02-10T10:57:06.534Z,49.80
2019-02-10T11:02:01.130Z,46.55
2019-02-10T11:06:55.727Z,44.38
2019-02-10T11:11:51.972Z,45.60
2019-02-10T11:16:46.826Z,46.67
2019-02-10T11:21:41.388Z,46.21
2019-02-10T11:26:36.015Z,43.73
2019-02-10T11:31:30.652Z,41.59
2019-02-10T11:36:25.267Z,41.04
2019-02-10T11:41:19.856Z,41.96
2019-02-10T11:46:14.467Z,43.11
2019-02-10T11:51:09.050Z,44.71
2019-02-10T11:56:03.715Z,44.79
2019-02-10T12:00:58.317Z,43.09
2019-02-10T12:05:52.902Z,43.84
2019-02-10T12:10:47.500Z,45.66
2019-02-10T12:15:42.094Z,46.11
2019-02-10T12:20:36.673Z,46.92
2019-02-10T12:25:32.125Z,47.20
2019-02-10T12:30:26.725Z,47.84
2019-02-10T12:35:21.694Z,47.13
2019-02-10T12:40:16.273Z,46.87
2019-02-10T12:45:15.210Z,47.61
2019-02-10T12:50:15.137Z,48.14
2019-02-10T12:55:12.662Z,50.54
2019-02-10T13:00:16.882Z,50.96
2019-02-10T13:05:11.535Z,50.75
2019-02-10T13:10:10.999Z,51.63
2019-02-10T13:15:08.604Z,51.45
2019-02-10T13:20:03.264Z,51.80
2019-02-10T13:24:57.871Z,51.80
2019-02-10T13:29:52.491Z,51.52
2019-02-10T13:34:47.061Z,47.64
2019-02-10T13:39:41.667Z,47.35
2019-02-10T13:44:36.245Z,48.18
2019-02-10T13:49:30.863Z,47.99
2019-02-10T13:54:25.550Z,48.89
2019-02-10T13:59:20.139Z,48.52
2019-02-10T14:04:14.736Z,49.16
2019-02-10T14:09:09.319Z,49.56
2019-02-10T14:14:03.923Z,49.29
2019-02-10T14:18:58.515Z,49.41
2019-02-10T14:23:53.103Z,49.89
2019-02-10T14:28:47.690Z,50.79
2019-02-10T14:33:42.283Z,51.35
2019-02-10T14:38:36.888Z,52.25
2019-02-10T14:43:31.499Z,52.91
2019-02-10T14:48:26.098Z,53.34
2019-02-10T14:53:20.686Z,54.07
2019-02-10T14:58:15.286Z,54.85
2019-02-10T15:03:09.875Z,55.53
2019-02-10T15:08:04.478Z,55.35
2019-02-10T15:12:59.119Z,55.61
2019-02-10T15:17:53.711Z,55.28
2019-02-10T15:22:48.303Z,55.56
2019-02-10T15:27:42.881Z,57.64
2019-02-10T15:32:37.463Z,58.99
2019-02-10T15:37:32.068Z,59.66
2019-02-10T15:42:26.662Z,59.13
2019-02-10T15:47:21.235Z,59.51
2019-02-10T15:52:15.869Z,60.47
2019-02-10T15:57:10.462Z,63.27
2019-02-10T16:02:05.133Z,63.45
2019-02-10T16:06:59.802Z,63.81
2019-02-10T16:11:54.392Z,62.96
2019-02-10T16:16:48.992Z,65.81
2019-02-10T16:21:43.587Z,69.32
2019-02-10T16:26:38.178Z,73.01
2019-02-10T16:31:32.760Z,80.48
2019-02-10T16:36:27.370Z,82.81
2019-02-10T16:41:21.964Z,83.84
2019-02-10T16:46:16.545Z,82.46
2019-02-10T16:51:11.126Z,81.64
2019-02-10T16:56:05.712Z,82.08
2019-02-10T17:01:00.294Z,80.00
2019-02-10T17:05:54.982Z,80.60
2019-02-10T17:10:49.570Z,80.72
2019-02-10T17:15:44.151Z,81.71
2019-02-10T17:20:38.745Z,80.30
2019-02-10T17:25:33.327Z,80.04
2019-02-10T17:30:28.003Z,80.27
2019-02-10T17:35:22.611Z,78.39
2019-02-10T17:40:24.287Z,77.99
2019-02-10T17:45:18.882Z,77.65
2019-02-10T17:50:14.021Z,77.43
2019-02-10T17:55:10.437Z,76.83
2019-02-10T18:00:17.853Z,77.11
2019-02-10T18:05:12.555Z,77.61
2019-02-10T18:10:13.856Z,78.92
2019-02-10T18:15:12.515Z,77.27
2019-02-10T18:20:26.855Z,76.71
2019-02-10T18:25:25.713Z,76.46
2019-02-10T18:30:21.930Z,79.17
2019-02-10T18:35:20.882Z,79.87
2019-02-10T18:40:26.296Z,80.97
2019-02-10T18:45:31.026Z,84.47
2019-02-10T18:50:30.162Z,85.07
2019-02-10T18:55:42.489Z,86.57
2019-02-10T19:00:44.582Z,86.44
2019-02-10T19:05:40.807Z,89.00
2019-02-10T19:10:37.027Z,87.42
2019-02-10T19:15:45.365Z,86.80
2019-02-10T19:20:57.687Z,86.43
2019-02-10T19:26:09.254Z,85.99
2019-02-10T19:31:14.132Z,85.91
2019-02-10T19:36:10.363Z,85.84
2019-02-10T19:41:09.053Z,85.52
2019-02-10T19:46:11.062Z,85.75
2019-02-10T19:51:13.152Z,86.24
2019-02-10T19:56:21.245Z,85.62
2019-02-10T20:01:32.795Z,85.80
2019-02-10T20:06:31.679Z,85.29
2019-02-10T20:11:43.933Z,84.59
2019-02-10T20:16:55.073Z,83.94
2019-02-10T20:21:54.262Z,82.67
2019-02-10T20:27:05.526Z,81.50
2019-02-10T20:32:04.455Z,81.24
2019-02-10T20:37:00.682Z,80.26
2019-02-10T20:42:03.082Z,79.45
2019-02-10T20:46:59.314Z,77.90
2019-02-10T20:51:58.080Z,77.63
2019-02-10T20:57:03.272Z,77.21
2019-02-10T21:02:02.586Z,76.33
2019-02-10T21:06:58.834Z,75.35
2019-02-10T21:12:01.323Z,74.77
2019-02-10T21:17:12.231Z,75.88
2019-02-10T21:22:11.158Z,75.15
2019-02-10T21:27:19.078Z,75.93
2019-02-10T21:32:21.346Z,77.14
2019-02-10T21:37:20.235Z,78.32
2019-02-10T21:42:16.472Z,79.37
2019-02-10T21:47:18.130Z,81.04
2019-02-10T21:52:12.728Z,80.96
2019-02-10T21:57:07.335Z,81.46
2019-02-10T22:02:01.914Z,81.33
2019-02-10T22:06:56.489Z,81.08
2019-02-10T22:11:51.067Z,81.00
2019-02-10T22:16:45.660Z,81.20
2019-02-10T22:21:40.250Z,81.10
2019-02-10T22:26:34.850Z,81.24
2019-02-10T22:31:29.435Z,80.92
2019-02-10T22:36:24.023Z,80.78
2019-02-10T22:41:18.611Z,81.10
2019-02-10T22:46:13.171Z,82.14
2019-02-10T22:51:07.759Z,82.73
2019-02-10T22:56:02.358Z,83.41
2019-02-10T23:01:01.215Z,83.97
2019-02-10T23:05:55.789Z,83.63
2019-02-10T23:10:51.940Z,84.61
2019-02-10T23:15:46.739Z,84.64
2019-02-10T23:20:41.411Z,85.23
2019-02-10T23:25:35.965Z,86.06
2019-02-10T23:30:30.546Z,86.60
2019-02-10T23:35:25.126Z,86.34
2019-02-10T23:40:19.707Z,86.40
2019-02-10T23:45:14.378Z,85.93
2019-02-10T23:50:09.689Z,85.79
2019-02-10T23:55:04.706Z,85.17
2019-02-10T23:59:59.292Z,85.20
